sensor_id;sensor_type;location;lat;lon;timestamp;pressure;altitude;pressure_sealevel;temperature;humidity
30338;BME280;17143;51.888;5.408;2023-05-14T00:13:04;101808.88;;;15.26;91.27
30338;BME280;17143;51.888;5.408;2023-05-14T00:28:06;101803.28;;;15.02;92.47
30338;BME280;17143;51.888;5.408;2023-05-14T00:43:08;101781.19;;;14.81;93.91
30338;BME280;17143;51.888;5.408;2023-05-14T00:58:11;101779.09;;;14.74;95.05
30338;BME280;17143;51.888;5.408;2023-05-14T01:13:17;101771.84;;;14.70;95.99
30338;BME280;17143;51.888;5.408;2023-05-14T01:28:27;101762.06;;;14.50;96.38
30338;BME280;17143;51.888;5.408;2023-05-14T01:43:30;101759.59;;;14.37;97.13
30338;BME280;17143;51.888;5.408;2023-05-14T01:58:32;101761.84;;;14.15;98.79
30338;BME280;17143;51.888;5.408;2023-05-14T02:13:34;101750.88;;;13.89;99.66
30338;BME280;17143;51.888;5.408;2023-05-14T02:28:37;101752.28;;;13.68;100.00
30338;BME280;17143;51.888;5.408;2023-05-14T02:43:39;101737.69;;;13.57;100.00
30338;BME280;17143;51.888;5.408;2023-05-14T02:58:41;101746.94;;;13.36;100.00
30338;BME280;17143;51.888;5.408;2023-05-14T03:13:43;101744.06;;;13.17;100.00
30338;BME280;17143;51.888;5.408;2023-05-14T03:28:45;101725.66;;;13.01;100.00
30338;BME280;17143;51.888;5.408;2023-05-14T03:43:48;101725.94;;;12.91;100.00
30338;BME280;17143;51.888;5.408;2023-05-14T03:58:50;101721.59;;;12.76;100.00
30338;BME280;17143;51.888;5.408;2023-05-14T04:13:52;101721.69;;;12.63;100.00
30338;BME280;17143;51.888;5.408;2023-05-14T04:28:54;101728.00;;;12.67;100.00
30338;BME280;17143;51.888;5.408;2023-05-14T04:43:57;101709.25;;;12.89;100.00
30338;BME280;17143;51.888;5.408;2023-05-14T04:58:59;101705.91;;;14.30;100.00
30338;BME280;17143;51.888;5.408;2023-05-14T05:14:01;101722.44;;;13.81;100.00
30338;BME280;17143;51.888;5.408;2023-05-14T05:29:04;101725.81;;;13.94;100.00
30338;BME280;17143;51.888;5.408;2023-05-14T05:44:06;101733.91;;;13.99;100.00
30338;BME280;17143;51.888;5.408;2023-05-14T05:59:08;101742.50;;;15.11;100.00
30338;BME280;17143;51.888;5.408;2023-05-14T06:14:10;101743.22;;;17.54;89.93
30338;BME280;17143;51.888;5.408;2023-05-14T06:29:12;101743.66;;;18.11;84.76
30338;BME280;17143;51.888;5.408;2023-05-14T06:44:14;101754.50;;;18.64;80.35
30338;BME280;17143;51.888;5.408;2023-05-14T06:59:16;101751.19;;;17.15;86.28
30338;BME280;17143;51.888;5.408;2023-05-14T07:14:19;101748.91;;;17.65;84.92
30338;BME280;17143;51.888;5.408;2023-05-14T07:29:21;101729.34;;;18.03;83.36
30338;BME280;17143;51.888;5.408;2023-05-14T07:44:23;101738.31;;;19.29;75.70
30338;BME280;17143;51.888;5.408;2023-05-14T07:59:25;101726.47;;;19.43;75.22
30338;BME280;17143;51.888;5.408;2023-05-14T08:14:27;101735.91;;;20.20;73.49
30338;BME280;17143;51.888;5.408;2023-05-14T08:29:29;101733.81;;;21.02;69.30
30338;BME280;17143;51.888;5.408;2023-05-14T08:44:35;101722.38;;;21.73;66.90
30338;BME280;17143;51.888;5.408;2023-05-14T08:59:37;101711.50;;;22.87;66.48
30338;BME280;17143;51.888;5.408;2023-05-14T09:14:39;101695.31;;;23.24;63.75
30338;BME280;17143;51.888;5.408;2023-05-14T09:29:41;101687.88;;;23.57;61.62
30338;BME280;17143;51.888;5.408;2023-05-14T09:44:45;101679.66;;;24.05;61.08
30338;BME280;17143;51.888;5.408;2023-05-14T09:59:47;101675.56;;;24.30;58.85
30338;BME280;17143;51.888;5.408;2023-05-14T10:14:52;101665.06;;;24.45;58.22
30338;BME280;17143;51.888;5.408;2023-05-14T10:29:57;101651.44;;;25.04;55.42
30338;BME280;17143;51.888;5.408;2023-05-14T10:45:06;101627.63;;;25.28;54.47
30338;BME280;17143;51.888;5.408;2023-05-14T11:00:11;101633.13;;;25.49;53.88
30338;BME280;17143;51.888;5.408;2023-05-14T11:15:15;101609.88;;;25.33;52.60
30338;BME280;17143;51.888;5.408;2023-05-14T11:30:18;101605.78;;;25.97;51.02
30338;BME280;17143;51.888;5.408;2023-05-14T11:45:25;101590.66;;;26.03;52.01
30338;BME280;17143;51.888;5.408;2023-05-14T12:00:27;101564.00;;;26.25;50.48
30338;BME280;17143;51.888;5.408;2023-05-14T12:15:30;101561.38;;;27.00;50.44
30338;BME280;17143;51.888;5.408;2023-05-14T12:30:37;101555.13;;;26.65;48.77
30338;BME280;17143;51.888;5.408;2023-05-14T12:45:39;101543.50;;;27.19;45.19
30338;BME280;17143;51.888;5.408;2023-05-14T13:00:41;101513.91;;;27.66;46.63
30338;BME280;17143;51.888;5.408;2023-05-14T13:15:43;101511.16;;;27.75;45.20
30338;BME280;17143;51.888;5.408;2023-05-14T13:31:04;101506.63;;;27.92;40.45
30338;BME280;17143;51.888;5.408;2023-05-14T13:46:06;101497.75;;;27.81;43.70
30338;BME280;17143;51.888;5.408;2023-05-14T14:01:08;101489.91;;;27.36;44.78
30338;BME280;17143;51.888;5.408;2023-05-14T14:16:10;101475.81;;;26.78;41.23
30338;BME280;17143;51.888;5.408;2023-05-14T14:31:12;101471.38;;;26.49;42.20
30338;BME280;17143;51.888;5.408;2023-05-14T14:46:14;101449.06;;;26.03;46.00
30338;BME280;17143;51.888;5.408;2023-05-14T15:01:16;101448.13;;;25.61;48.27
30338;BME280;17143;51.888;5.408;2023-05-14T15:16:19;101454.41;;;25.73;49.46
30338;BME280;17143;51.888;5.408;2023-05-14T15:31:21;101445.47;;;25.70;47.13
30338;BME280;17143;51.888;5.408;2023-05-14T15:46:23;101421.31;;;25.29;45.49
30338;BME280;17143;51.888;5.408;2023-05-14T16:01:25;101417.47;;;24.72;44.64
30338;BME280;17143;51.888;5.408;2023-05-14T16:16:27;101419.19;;;24.64;46.86
30338;BME280;17143;51.888;5.408;2023-05-14T16:31:29;101420.72;;;24.29;49.53
30338;BME280;17143;51.888;5.408;2023-05-14T16:46:32;101414.19;;;23.94;47.95
30338;BME280;17143;51.888;5.408;2023-05-14T17:01:34;101434.97;;;23.42;50.27
30338;BME280;17143;51.888;5.408;2023-05-14T17:16:36;101431.28;;;23.36;53.95
30338;BME280;17143;51.888;5.408;2023-05-14T17:31:38;101437.84;;;22.93;62.14
30338;BME280;17143;51.888;5.408;2023-05-14T17:46:40;101440.44;;;22.31;67.71
30338;BME280;17143;51.888;5.408;2023-05-14T18:01:42;101444.22;;;21.93;70.57
30338;BME280;17143;51.888;5.408;2023-05-14T18:16:44;101438.53;;;21.75;71.92
30338;BME280;17143;51.888;5.408;2023-05-14T18:31:47;101456.69;;;21.10;73.85
30338;BME280;17143;51.888;5.408;2023-05-14T18:46:49;101463.22;;;20.48;76.91
30338;BME280;17143;51.888;5.408;2023-05-14T19:01:51;101477.56;;;19.91;79.54
30338;BME280;17143;51.888;5.408;2023-05-14T19:16:53;101484.31;;;19.47;80.83
30338;BME280;17143;51.888;5.408;2023-05-14T19:31:55;101473.31;;;18.75;83.95
30338;BME280;17143;51.888;5.408;2023-05-14T19:46:57;101481.44;;;18.30;86.15
30338;BME280;17143;51.888;5.408;2023-05-14T20:01:59;101494.50;;;17.75;86.16
30338;BME280;17143;51.888;5.408;2023-05-14T20:17:01;101490.91;;;17.25;88.33
30338;BME280;17143;51.888;5.408;2023-05-14T20:32:04;101489.97;;;17.01;89.12
30338;BME280;17143;51.888;5.408;2023-05-14T20:47:06;101493.91;;;16.90;89.26
30338;BME280;17143;51.888;5.408;2023-05-14T21:02:08;101484.56;;;16.54;90.83
30338;BME280;17143;51.888;5.408;2023-05-14T21:17:10;101480.31;;;16.36;91.63
30338;BME280;17143;51.888;5.408;2023-05-14T21:32:12;101478.75;;;16.41;90.34
30338;BME280;17143;51.888;5.408;2023-05-14T21:47:15;101470.84;;;16.19;91.08
30338;BME280;17143;51.888;5.408;2023-05-14T22:02:17;101451.91;;;16.07;90.92
30338;BME280;17143;51.888;5.408;2023-05-14T22:17:19;101463.06;;;15.81;92.51
30338;BME280;17143;51.888;5.408;2023-05-14T22:32:21;101456.34;;;15.67;92.89
30338;BME280;17143;51.888;5.408;2023-05-14T22:47:23;101439.34;;;15.59;92.71
30338;BME280;17143;51.888;5.408;2023-05-14T23:02:25;101435.47;;;15.32;94.16
30338;BME280;17143;51.888;5.408;2023-05-14T23:17:27;101416.16;;;15.10;94.77
30338;BME280;17143;51.888;5.408;2023-05-14T23:32:29;101412.56;;;14.89;95.92
30338;BME280;17143;51.888;5.408;2023-05-14T23:47:31;101395.69;;;14.65;96.59
